createdAt,value
2022-09-28T00:01:57.042Z,9.98
2022-09-28T00:04:25.946Z,10.30
2022-09-28T00:06:55.872Z,8.95
2022-09-28T00:09:24.407Z,8.75
2022-09-28T00:11:53.731Z,9.48
2022-09-28T00:14:22.491Z,8.63
2022-09-28T00:16:51.088Z,9.07
2022-09-28T00:19:19.688Z,12.77
2022-09-28T00:21:48.230Z,8.82
2022-09-28T00:24:20.523Z,10.20
2022-09-28T00:26:52.082Z,9.25
2022-09-28T00:29:23.487Z,11.27
2022-09-28T00:31:54.282Z,9.25
2022-09-28T00:34:22.806Z,9.40
2022-09-28T00:36:51.307Z,9.05
2022-09-28T00:39:21.557Z,11.35
2022-09-28T00:41:51.018Z,13.20
2022-09-28T00:44:43.311Z,10.38
2022-09-28T00:47:32.710Z,10.10
2022-09-28T00:50:04.551Z,8.90
2022-09-28T00:52:37.166Z,9.38
2022-09-28T00:55:10.827Z,8.73
2022-09-28T00:57:43.423Z,8.43
2022-09-28T01:00:13.666Z,9.40
2022-09-28T01:02:44.130Z,11.43
2022-09-28T01:05:14.106Z,9.68
2022-09-28T01:07:43.883Z,10.07
2022-09-28T01:10:14.023Z,10.13
2022-09-28T01:12:42.590Z,10.05
2022-09-28T01:15:12.100Z,8.88
2022-09-28T01:17:55.360Z,10.23
2022-09-28T01:20:53.021Z,9.18
2022-09-28T01:23:53.098Z,9.10
2022-09-28T01:26:38.737Z,9.45
2022-09-28T01:29:16.275Z,10.15
2022-09-28T01:31:50.162Z,10.50
2022-09-28T01:34:25.439Z,9.38
2022-09-28T01:36:57.381Z,10.85
2022-09-28T01:39:30.689Z,11.75
2022-09-28T01:42:05.961Z,9.40
2022-09-28T01:44:39.879Z,9.98
2022-09-28T01:47:11.524Z,9.50
2022-09-28T01:49:46.017Z,12.40
2022-09-28T01:52:18.529Z,9.38
2022-09-28T01:54:50.504Z,9.52
2022-09-28T01:57:25.723Z,8.63
2022-09-28T01:59:59.940Z,10.18
2022-09-28T02:02:34.056Z,10.13
2022-09-28T02:05:09.041Z,9.38
2022-09-28T02:07:42.530Z,8.43
2022-09-28T02:10:16.508Z,8.90
2022-09-28T02:12:49.972Z,9.90
2022-09-28T02:15:24.617Z,9.20
2022-09-28T02:17:53.684Z,11.60
2022-09-28T02:20:22.941Z,9.95
2022-09-28T02:22:55.840Z,9.85
2022-09-28T02:25:31.297Z,12.13
2022-09-28T02:28:02.970Z,9.57
2022-09-28T02:30:32.116Z,14.00
2022-09-28T02:33:04.684Z,10.60
2022-09-28T02:35:34.971Z,10.98
2022-09-28T02:38:03.661Z,10.93
2022-09-28T02:40:34.919Z,10.82
2022-09-28T02:43:15.079Z,11.48
2022-09-28T02:45:53.600Z,10.32
2022-09-28T02:48:43.935Z,10.50
2022-09-28T02:51:23.999Z,14.90
2022-09-28T02:54:22.660Z,13.85
2022-09-28T02:57:07.016Z,11.57
2022-09-28T02:59:50.567Z,12.45
2022-09-28T03:02:29.894Z,11.07
2022-09-28T03:05:15.127Z,11.45
2022-09-28T03:07:52.157Z,12.13
2022-09-28T03:10:26.351Z,12.68
2022-09-28T03:12:55.823Z,12.95
2022-09-28T03:15:27.862Z,11.50
2022-09-28T03:17:57.250Z,11.52
2022-09-28T03:20:26.147Z,11.10
2022-09-28T03:23:12.688Z,12.05
2022-09-28T03:25:43.168Z,12.25
2022-09-28T03:28:11.658Z,10.45
2022-09-28T03:30:43.509Z,11.45
2022-09-28T03:33:12.008Z,11.63
2022-09-28T03:35:40.601Z,11.45
2022-09-28T03:38:09.358Z,13.75
2022-09-28T03:40:37.907Z,13.23
2022-09-28T03:43:06.488Z,15.63
2022-09-28T03:45:35.166Z,11.93
2022-09-28T03:48:05.248Z,12.30
2022-09-28T03:50:33.847Z,12.77
2022-09-28T03:53:05.988Z,13.27
2022-09-28T03:55:34.612Z,12.27
2022-09-28T03:58:03.127Z,13.10
2022-09-28T04:00:31.658Z,17.73
2022-09-28T04:03:00.227Z,12.55
2022-09-28T04:05:30.197Z,13.93
2022-09-28T04:07:58.821Z,13.05
2022-09-28T04:10:27.866Z,12.73
2022-09-28T04:12:57.211Z,13.45
2022-09-28T04:15:26.273Z,13.98
2022-09-28T04:17:54.896Z,13.68
2022-09-28T04:20:23.419Z,13.80
2022-09-28T04:22:53.384Z,14.25
2022-09-28T04:25:21.967Z,11.98
2022-09-28T04:28:08.348Z,14.23
2022-09-28T04:30:36.916Z,15.68
2022-09-28T04:33:05.407Z,14.50
2022-09-28T04:35:33.913Z,15.85
2022-09-28T04:38:03.840Z,13.68
2022-09-28T04:40:32.387Z,14.38
2022-09-28T04:43:00.966Z,15.00
2022-09-28T04:45:29.509Z,18.42
2022-09-28T04:47:58.086Z,13.65
2022-09-28T04:50:26.579Z,14.88
2022-09-28T04:52:55.190Z,16.00
2022-09-28T04:55:25.079Z,14.02
2022-09-28T04:57:53.960Z,14.38
2022-09-28T05:00:22.537Z,14.38
2022-09-28T05:02:51.018Z,15.73
2022-09-28T05:05:19.513Z,14.77
2022-09-28T05:07:48.067Z,14.75
2022-09-28T05:10:19.945Z,16.85
2022-09-28T05:12:49.945Z,14.95
2022-09-28T05:15:18.585Z,13.57
2022-09-28T05:17:47.074Z,13.98
2022-09-28T05:20:15.757Z,20.10
2022-09-28T05:22:44.335Z,14.07
2022-09-28T05:25:12.890Z,14.25
2022-09-28T05:27:41.379Z,15.77
2022-09-28T05:30:12.672Z,16.15
2022-09-28T05:32:41.712Z,13.20
2022-09-28T05:35:12.299Z,13.43
2022-09-28T05:37:41.209Z,13.63
2022-09-28T05:40:10.800Z,13.40
2022-09-28T05:42:39.435Z,13.73
2022-09-28T05:45:09.192Z,15.13
2022-09-28T05:47:40.952Z,13.75
2022-09-28T05:50:11.847Z,16.02
2022-09-28T05:52:40.385Z,14.32
2022-09-28T05:55:09.980Z,14.85
2022-09-28T05:57:38.658Z,14.25
2022-09-28T06:00:09.684Z,13.80
2022-09-28T06:02:39.710Z,13.68
2022-09-28T06:05:08.948Z,13.52
2022-09-28T06:07:37.651Z,14.57
2022-09-28T06:10:07.036Z,14.45
2022-09-28T06:12:35.597Z,13.80
2022-09-28T06:15:04.360Z,15.68
2022-09-28T06:17:32.830Z,13.85
2022-09-28T06:20:03.001Z,16.27
2022-09-28T06:22:31.552Z,14.57
2022-09-28T06:25:00.107Z,13.88
2022-09-28T06:27:28.600Z,14.05
2022-09-28T06:29:57.080Z,16.83
2022-09-28T06:32:25.603Z,17.92
2022-09-28T06:34:56.329Z,16.48
2022-09-28T06:37:27.782Z,15.52
2022-09-28T06:39:56.264Z,14.85
2022-09-28T06:42:24.778Z,15.25
2022-09-28T06:44:53.300Z,17.95
2022-09-28T06:47:21.899Z,16.10
2022-09-28T06:49:51.335Z,16.60
2022-09-28T06:52:19.843Z,17.92
2022-09-28T06:54:49.751Z,14.85
2022-09-28T06:57:18.273Z,15.60
2022-09-28T06:59:46.766Z,15.50
2022-09-28T07:02:15.465Z,15.10
2022-09-28T07:04:44.359Z,16.52
2022-09-28T07:07:14.308Z,17.05
2022-09-28T07:09:48.101Z,15.95
2022-09-28T07:12:20.293Z,16.42
2022-09-28T07:14:50.307Z,52.90
2022-09-28T07:17:19.150Z,18.73
2022-09-28T07:19:52.718Z,15.73
2022-09-28T07:22:34.473Z,17.43
2022-09-28T07:25:09.730Z,16.60
2022-09-28T07:27:39.659Z,18.38
2022-09-28T07:30:09.421Z,18.60
2022-09-28T07:32:38.024Z,17.83
2022-09-28T07:35:08.333Z,18.67
2022-09-28T07:37:37.308Z,16.35
2022-09-28T07:40:25.114Z,18.00
2022-09-28T07:42:55.191Z,16.25
2022-09-28T07:45:24.906Z,18.83
2022-09-28T07:47:56.404Z,17.88
2022-09-28T07:50:25.355Z,15.57
2022-09-28T07:52:53.875Z,19.52
2022-09-28T07:55:22.439Z,18.38
2022-09-28T07:57:59.641Z,17.73
2022-09-28T08:00:31.954Z,18.48
2022-09-28T08:03:03.868Z,17.33
2022-09-28T08:05:32.397Z,17.90
2022-09-28T08:08:01.296Z,15.65
2022-09-28T08:10:30.004Z,17.80
2022-09-28T08:13:04.736Z,18.95
2022-09-28T08:15:37.114Z,16.80
2022-09-28T08:18:06.328Z,14.27
2022-09-28T08:20:52.544Z,17.23
2022-09-28T08:23:21.896Z,18.75
2022-09-28T08:25:52.641Z,16.83
2022-09-28T08:28:23.868Z,17.83
2022-09-28T08:30:52.544Z,16.83
2022-09-28T08:33:22.647Z,17.17
2022-09-28T08:35:57.812Z,17.75
2022-09-28T08:38:26.767Z,16.58
2022-09-28T08:41:05.457Z,17.75
2022-09-28T08:44:07.671Z,16.05
2022-09-28T08:46:41.979Z,13.82
2022-09-28T08:54:35.105Z,15.52
2022-09-28T08:57:08.476Z,15.30
2022-09-28T08:59:46.734Z,16.60
2022-09-28T09:02:19.573Z,15.55
2022-09-28T09:04:48.714Z,15.55
2022-09-28T09:07:48.191Z,16.27
2022-09-28T09:10:36.372Z,13.20
2022-09-28T09:13:19.136Z,13.90
2022-09-28T09:15:55.265Z,14.35
2022-09-28T09:18:32.587Z,13.32
2022-09-28T09:21:08.985Z,12.05
2022-09-28T09:23:40.110Z,11.27
2022-09-28T09:26:19.867Z,13.57
2022-09-28T09:29:18.516Z,12.52
2022-09-28T09:32:04.090Z,16.23
2022-09-28T09:34:52.715Z,11.73
2022-09-28T09:37:43.999Z,14.35
2022-09-28T09:40:30.511Z,11.27
2022-09-28T09:43:10.100Z,12.98
2022-09-28T09:45:55.071Z,12.52
2022-09-28T09:48:30.782Z,11.50
2022-09-28T09:51:01.744Z,10.65
2022-09-28T09:53:38.599Z,11.05
2022-09-28T09:56:14.362Z,9.18
2022-09-28T09:58:48.052Z,8.90
2022-09-28T10:01:21.324Z,10.20
2022-09-28T10:03:52.324Z,10.47
2022-09-28T10:06:27.700Z,8.85
2022-09-28T10:09:04.575Z,11.82
2022-09-28T10:11:38.365Z,9.77
2022-09-28T10:14:08.272Z,11.73
2022-09-28T10:16:37.314Z,10.52
2022-09-28T10:19:08.973Z,9.52
2022-09-28T10:21:41.134Z,8.55
2022-09-28T10:24:16.678Z,9.48
2022-09-28T10:26:50.955Z,9.60
2022-09-28T10:31:52.535Z,8.75
2022-09-28T10:34:28.352Z,9.68
2022-09-28T10:37:00.599Z,8.35
2022-09-28T10:39:33.360Z,7.72
2022-09-28T10:42:04.678Z,9.13
2022-09-28T10:44:35.600Z,6.82
2022-09-28T10:47:08.107Z,7.95
2022-09-28T10:49:47.042Z,7.78
2022-09-28T10:52:38.436Z,6.75
2022-09-28T10:55:28.903Z,7.15
2022-09-28T10:57:57.855Z,10.43
2022-09-28T11:00:35.742Z,7.63
2022-09-28T11:03:04.941Z,8.40
2022-09-28T11:05:36.012Z,6.72
2022-09-28T11:08:08.748Z,6.70
2022-09-28T11:10:37.475Z,7.47
2022-09-28T11:13:10.760Z,8.68
2022-09-28T11:15:44.843Z,9.05
2022-09-28T11:18:22.562Z,10.15
2022-09-28T11:20:52.647Z,8.90
2022-09-28T11:23:25.326Z,8.45
2022-09-28T11:25:59.910Z,10.98
2022-09-28T11:28:33.778Z,9.70
2022-09-28T11:31:03.361Z,8.32
2022-09-28T11:33:34.792Z,10.57
2022-09-28T11:36:29.493Z,13.23
2022-09-28T11:39:08.469Z,8.65
2022-09-28T11:41:55.460Z,8.63
2022-09-28T11:44:41.402Z,8.63
2022-09-28T11:47:44.930Z,8.95
2022-09-28T11:50:24.606Z,7.60
2022-09-28T11:53:02.964Z,8.15
2022-09-28T11:55:37.684Z,8.10
2022-09-28T11:58:12.874Z,6.93
2022-09-28T12:00:47.347Z,7.00
2022-09-28T12:03:19.765Z,6.88
2022-09-28T12:05:53.001Z,7.60
2022-09-28T12:08:27.787Z,6.72
2022-09-28T12:11:01.883Z,6.22
2022-09-28T12:13:35.818Z,7.28
2022-09-28T12:16:32.327Z,5.03
2022-09-28T12:19:02.953Z,5.68
2022-09-28T12:21:38.437Z,4.45
2022-09-28T12:24:17.310Z,5.72
2022-09-28T12:26:53.206Z,8.10
2022-09-28T12:29:27.763Z,5.55
2022-09-28T12:32:06.471Z,6.07
2022-09-28T12:34:35.224Z,5.78
2022-09-28T12:37:29.094Z,11.25
2022-09-28T12:40:24.052Z,8.40
2022-09-28T12:43:07.384Z,10.65
2022-09-28T12:46:10.451Z,5.95
2022-09-28T12:51:59.989Z,6.35
2022-09-28T12:54:53.469Z,6.25
2022-09-28T12:57:39.207Z,6.93
2022-09-28T13:00:13.034Z,4.88
2022-09-28T13:02:56.792Z,5.00
2022-09-28T13:05:50.405Z,2.97
2022-09-28T13:08:27.253Z,3.78
2022-09-28T13:11:08.062Z,4.65
2022-09-28T13:13:47.994Z,4.97
2022-09-28T13:16:25.000Z,7.20
2022-09-28T13:19:02.272Z,4.45
2022-09-28T13:21:37.785Z,4.57
2022-09-28T13:24:31.070Z,4.05
2022-09-28T13:27:07.216Z,3.88
2022-09-28T13:32:14.135Z,5.97
2022-09-28T13:34:43.006Z,5.78
2022-09-28T13:37:24.161Z,9.48
2022-09-28T13:39:55.116Z,5.43
2022-09-28T13:42:38.032Z,5.35
2022-09-28T13:45:33.548Z,6.63
2022-09-28T13:48:15.768Z,5.40
2022-09-28T13:51:12.464Z,6.57
2022-09-28T13:53:59.819Z,5.55
2022-09-28T13:56:39.248Z,6.20
2022-09-28T13:59:20.389Z,4.75
2022-09-28T14:01:57.833Z,6.10
2022-09-28T14:04:54.737Z,6.07
2022-09-28T14:10:20.978Z,5.15
2022-09-28T14:12:51.589Z,5.60
2022-09-28T14:15:44.206Z,8.68
2022-09-28T14:18:23.613Z,4.82
2022-09-28T14:21:13.600Z,5.88
2022-09-28T14:24:00.828Z,7.25
2022-09-28T14:26:58.014Z,5.22
2022-09-28T14:29:29.571Z,5.05
2022-09-28T14:31:59.653Z,5.60
2022-09-28T14:34:35.448Z,7.53
2022-09-28T14:37:23.526Z,6.70
2022-09-28T14:40:10.040Z,4.68
2022-09-28T14:42:38.917Z,5.78
2022-09-28T14:45:34.967Z,6.15
2022-09-28T14:48:19.914Z,5.07
2022-09-28T14:50:50.481Z,7.93
2022-09-28T14:53:24.944Z,8.00
2022-09-28T14:55:59.125Z,9.77
2022-09-28T14:58:32.520Z,7.72
2022-09-28T15:01:05.990Z,9.27
2022-09-28T15:03:36.676Z,9.13
2022-09-28T15:06:07.123Z,8.18
2022-09-28T15:08:40.492Z,7.63
2022-09-28T15:11:16.821Z,5.57
2022-09-28T15:13:45.496Z,6.65
2022-09-28T15:16:16.690Z,6.22
2022-09-28T15:19:18.712Z,12.70
2022-09-28T15:21:50.247Z,9.85
2022-09-28T15:24:31.162Z,7.20
2022-09-28T15:27:01.825Z,6.97
2022-09-28T15:29:33.414Z,8.25
2022-09-28T15:32:02.910Z,8.15
2022-09-28T15:34:50.464Z,7.55
2022-09-28T15:37:23.972Z,7.68
2022-09-28T15:39:54.898Z,8.10
2022-09-28T15:42:24.986Z,11.55
2022-09-28T15:45:26.893Z,9.07
2022-09-28T15:48:16.188Z,8.35
2022-09-28T15:50:58.496Z,10.13
2022-09-28T15:53:28.812Z,7.97
2022-09-28T15:56:03.636Z,7.75
2022-09-28T15:58:32.273Z,7.80
2022-09-28T16:01:23.356Z,9.07
2022-09-28T16:03:52.264Z,9.05
2022-09-28T16:06:21.350Z,8.10
2022-09-28T16:08:51.333Z,7.05
2022-09-28T16:11:24.310Z,10.35
2022-09-28T16:14:06.071Z,8.02
2022-09-28T16:16:40.319Z,11.15
2022-09-28T16:19:24.128Z,10.77
2022-09-28T16:21:55.769Z,11.27
2022-09-28T16:24:29.129Z,11.38
2022-09-28T16:27:00.132Z,12.13
2022-09-28T16:29:36.327Z,12.07
2022-09-28T16:32:41.844Z,12.52
2022-09-28T16:35:19.920Z,12.82
2022-09-28T16:37:50.647Z,21.25
2022-09-28T16:40:20.951Z,17.35
2022-09-28T16:42:50.261Z,18.63
2022-09-28T16:45:21.172Z,20.17
2022-09-28T16:47:52.386Z,13.27
2022-09-28T16:50:21.815Z,12.73
2022-09-28T16:53:15.361Z,16.15
2022-09-28T16:55:46.654Z,18.63
2022-09-28T16:58:15.161Z,13.57
2022-09-28T17:00:45.844Z,17.08
2022-09-28T17:03:16.037Z,16.25
2022-09-28T17:05:45.713Z,28.30
2022-09-28T17:08:17.610Z,21.13
2022-09-28T17:13:41.384Z,21.05
2022-09-28T17:16:14.101Z,32.42
2022-09-28T17:18:43.182Z,18.77
2022-09-28T17:21:15.862Z,29.50
2022-09-28T17:23:44.781Z,21.35
2022-09-28T17:26:21.824Z,26.90
2022-09-28T17:28:50.572Z,16.08
2022-09-28T17:31:19.268Z,16.33
2022-09-28T17:33:48.094Z,22.90
2022-09-28T17:36:18.453Z,19.83
2022-09-28T17:38:48.735Z,16.20
2022-09-28T17:41:20.989Z,25.83
2022-09-28T17:43:50.445Z,22.80
2022-09-28T17:46:28.000Z,18.05
2022-09-28T17:48:59.476Z,22.02
2022-09-28T17:51:30.210Z,13.25
2022-09-28T17:54:00.947Z,14.95
2022-09-28T17:56:32.641Z,14.82
2022-09-28T17:59:03.764Z,18.67
2022-09-28T18:01:34.529Z,22.15
2022-09-28T18:04:05.008Z,25.65
2022-09-28T18:06:34.460Z,14.70
2022-09-28T18:09:04.120Z,16.92
2022-09-28T18:11:35.349Z,15.00
2022-09-28T18:14:06.789Z,12.90
2022-09-28T18:16:38.180Z,25.98
2022-09-28T18:19:06.846Z,33.78
2022-09-28T18:21:35.433Z,53.65
2022-09-28T18:24:04.437Z,53.70
2022-09-28T18:26:34.571Z,39.28
2022-09-28T18:29:03.117Z,25.70
2022-09-28T18:31:31.733Z,34.97
2022-09-28T18:34:01.733Z,29.40
2022-09-28T18:36:30.860Z,39.95
2022-09-28T18:39:02.679Z,40.95
2022-09-28T18:41:31.228Z,35.67
2022-09-28T18:44:01.655Z,44.03
2022-09-28T18:46:31.401Z,30.73
2022-09-28T18:48:59.994Z,19.30
2022-09-28T18:51:28.500Z,24.92
2022-09-28T18:53:57.348Z,20.05
2022-09-28T18:56:26.848Z,21.83
2022-09-28T18:58:56.952Z,19.08
2022-09-28T19:01:31.306Z,18.92
2022-09-28T19:04:01.547Z,30.65
2022-09-28T19:06:30.751Z,26.83
2022-09-28T19:08:59.702Z,24.05
2022-09-28T19:11:28.981Z,28.92
2022-09-28T19:13:57.907Z,22.90
2022-09-28T19:16:29.886Z,40.60
2022-09-28T19:18:59.355Z,35.33
2022-09-28T19:21:28.222Z,30.30
2022-09-28T19:23:56.927Z,35.95
2022-09-28T19:26:27.545Z,32.83
2022-09-28T19:28:57.606Z,37.13
2022-09-28T19:31:28.360Z,37.80
2022-09-28T19:33:56.902Z,31.67
2022-09-28T19:36:28.645Z,39.60
2022-09-28T19:38:58.876Z,40.53
2022-09-28T19:41:44.479Z,32.53
2022-09-28T19:44:19.468Z,27.55
2022-09-28T19:46:49.602Z,23.60
2022-09-28T19:49:22.155Z,21.58
2022-09-28T19:52:12.194Z,18.33
2022-09-28T19:54:43.870Z,14.50
2022-09-28T19:57:16.040Z,15.35
2022-09-28T19:59:48.366Z,19.17
2022-09-28T20:02:21.285Z,17.25
2022-09-28T20:04:50.116Z,20.52
2022-09-28T20:07:18.721Z,17.70
2022-09-28T20:09:47.245Z,17.70
2022-09-28T20:12:15.749Z,16.85
2022-09-28T20:14:44.445Z,19.33
2022-09-28T20:17:13.052Z,16.55
2022-09-28T20:19:43.026Z,17.85
2022-09-28T20:22:12.237Z,19.90
2022-09-28T20:24:40.744Z,15.65
2022-09-28T20:27:09.469Z,14.77
2022-09-28T20:29:38.073Z,27.73
2022-09-28T20:32:06.739Z,13.90
2022-09-28T20:34:35.407Z,17.10
2022-09-28T20:37:05.372Z,15.95
2022-09-28T20:39:34.503Z,15.05
2022-09-28T20:42:03.156Z,14.30
2022-09-28T20:44:31.738Z,14.40
2022-09-28T20:47:00.837Z,16.05
2022-09-28T20:49:29.356Z,16.77
2022-09-28T20:51:57.831Z,15.00
2022-09-28T20:54:27.820Z,18.52
2022-09-28T20:56:56.418Z,16.15
2022-09-28T20:59:26.501Z,14.63
2022-09-28T21:01:55.064Z,15.63
2022-09-28T21:04:24.279Z,15.65
2022-09-28T21:06:53.214Z,15.48
2022-09-28T21:09:21.850Z,22.48
2022-09-28T21:11:51.717Z,24.35
2022-09-28T21:14:20.857Z,18.00
2022-09-28T21:16:49.602Z,19.33
2022-09-28T21:19:18.099Z,15.43
2022-09-28T21:21:46.729Z,14.55
2022-09-28T21:24:15.302Z,18.70
2022-09-28T21:26:43.840Z,17.98
2022-09-28T21:29:15.392Z,19.27
2022-09-28T21:31:46.722Z,24.02
2022-09-28T21:34:19.499Z,22.63
2022-09-28T21:36:50.995Z,19.80
2022-09-28T21:39:20.175Z,52.75
2022-09-28T21:41:48.775Z,28.33
2022-09-28T21:44:18.820Z,37.97
2022-09-28T21:46:47.459Z,23.35
2022-09-28T21:49:16.036Z,24.25
2022-09-28T21:51:47.175Z,18.35
2022-09-28T21:54:15.749Z,14.35
2022-09-28T21:56:44.318Z,13.93
2022-09-28T21:59:12.850Z,15.73
2022-09-28T22:01:43.366Z,12.48
2022-09-28T22:04:12.125Z,17.77
2022-09-28T22:06:40.925Z,14.95
2022-09-28T22:09:09.673Z,18.75
2022-09-28T22:11:38.212Z,13.45
2022-09-28T22:14:06.824Z,20.98
2022-09-28T22:16:35.411Z,24.38
2022-09-28T22:19:05.341Z,23.75
2022-09-28T22:21:35.482Z,18.55
2022-09-28T22:24:06.450Z,19.52
2022-09-28T22:26:38.308Z,12.70
2022-09-28T22:29:08.896Z,13.55
2022-09-28T22:31:39.394Z,14.40
2022-09-28T22:34:09.924Z,13.02
2022-09-28T22:36:38.483Z,13.50
2022-09-28T22:39:07.124Z,13.88
2022-09-28T22:41:35.645Z,14.02
2022-09-28T22:44:04.275Z,16.50
2022-09-28T22:46:33.021Z,13.38
2022-09-28T22:49:02.144Z,15.68
2022-09-28T22:51:32.675Z,15.15
2022-09-28T22:54:01.266Z,13.18
2022-09-28T22:56:30.292Z,12.57
2022-09-28T22:58:58.918Z,13.65
2022-09-28T23:01:28.949Z,12.63
2022-09-28T23:03:58.743Z,12.13
2022-09-28T23:06:29.097Z,12.70
2022-09-28T23:08:59.113Z,12.90
2022-09-28T23:11:28.003Z,16.70
2022-09-28T23:13:58.396Z,12.90
2022-09-28T23:16:28.451Z,13.43
2022-09-28T23:18:57.302Z,13.85
2022-09-28T23:21:27.373Z,15.07
2022-09-28T23:24:00.996Z,14.55
2022-09-28T23:26:31.135Z,14.85
2022-09-28T23:29:00.332Z,11.93
2022-09-28T23:31:30.623Z,12.57
2022-09-28T23:33:59.634Z,13.38
2022-09-28T23:36:28.946Z,13.43
2022-09-28T23:38:58.903Z,13.98
2022-09-28T23:41:27.758Z,14.30
2022-09-28T23:43:56.307Z,13.02
2022-09-28T23:46:24.847Z,14.25
2022-09-28T23:48:53.660Z,17.05
2022-09-28T23:51:22.219Z,13.65
2022-09-28T23:53:50.746Z,14.48
2022-09-28T23:56:21.328Z,13.70
2022-09-28T23:58:49.808Z,18.77
